KGWW

Details ICAO KGWW
Name GOLDSBORO WAYNE MUNI
Region United States
Timezone America/New_York (UTC-5.0)
Plans Departing 5
Arriving 1
Stats Elevation 134 ft / 41 m (AMSL)
Location 35.460553° -77.964930°
Runways 1
Magnetic Variation 9.611° W
Sunrise 2017-12-17 12:16:29 UTC / 2017-12-17 07:16:29 Local
Sunset 2017-12-17 22:02:25 UTC / 2017-12-17 17:02:25 Local
Advertisement - Login to hide

Runways

ID Width Length Bearing (true) Bearing (mag) Surface Threshold Offset Overrun Length
05 100 ft / 30 m 5,502 ft / 1,677 m 43.18° 52.79° Asphalt 0 ft / 0 m 500 ft / 152 m
23 100 ft / 30 m 5,502 ft / 1,677 m 223.19° 232.80° Asphalt 0 ft / 0 m 0 ft / 0 m

Map

Weather


0- 5 10 15 20 25 30 35+ Temperature / ° C

Clouds and Precipitation
Forecast for 2017-12-17 18:00 UTC. Updated 26 minutes ago

Ground ~20,000 ft ~40,000 ft Winds

METAR

KGWW 171730Z AUTO 22005KT 10SM CLR 11/00 A3026 RMK AO2 T01051003

TAF

Not found

Frequencies

Recorded 118.97 MHz AWOS 3
Approach 123.70 MHz SEY JOHNSON APP DEP
Unicom 122.70 MHz CTAF/UNICOM
Warning: Do not use this data for real-world aviation or navigation. No guarantee of current accuracy is given.